РПИ Ростов-на-Дону

8 октября 2002 года в связи с концептуальными решениями реорганизации ЕС ОрВД и необходимостью оптимизации количества дочерних предприятий на основании распоряжения Министерства имущественных отношений Российской Федерации впервые на Юге России путем слияния ГУДП СКЦ АУВД «Стрела», ГУДП «Волгоградаэронавигация» и ГУДП «Кавказаэронавигация» было создано Государственное унитарное дочернее предприятие «Аэронавигация Юга».

ОСНОВНЫЕ ФУНКЦИИ ФИЛИАЛА: организация воздушного движения в границах ответственности; планирование и координирование использования воздушного пространства; информационное обеспечение пользователей воздушного пространства, предоставление средств радиотехнического обеспечения полётов, авиационной электросвязи; организация и осуществление технической эксплуатации и обслуживания объектов и средств радиотехнического обеспечения полётов, авиационной электросвязи и средств авиационной фиксированной спутниковой связи; контроль качества аэронавигационного обслуживания.

Обслуживаемая филиалом площадь, в воздушном пространстве которой решаются задачи ИВП и УВД, составляет 729 000 кв. км.

На территории Ростовской зоны ЕС ОрВД располагаются:

  • 104 воздушные трассы протяженностью 36504 км. (международных – 82, внутренних – 22);
  • 15 аэродромов гражданской авиации;
  • 37 аэродромов государственной авиации;
  • 3 аэродрома экспериментальной авиации;
  • 9 аэродромов ДОСААФ;
  • 151 посадочная площадка;
  • 177 градобойных  и 5 противолавинных позиций;
  • 47 авиационных и общевойсковых полигонов.

Филиал осуществляет аэронавигационное обслуживание в воздушном пространстве в границах Ростовской, Волгоградской, Астраханской областей, Краснодарского и Ставропольского краев, республик Адыгеи, Калмыкии, Ингушетии, Дагестана, Чеченской, Северной Осетии (Алания), Карачаево-Черкесской и Кабардино-Балкарской, а также над акваториями Азовского, Каспийского и Черного морей.

Сектора РЦ РПИ Ростов-на-Дону

Объединенный сектор РЦ - URRV_CTR - 122.900

Руководство

Grigori Badalov*

Куратор

Valeriy Polostyanoy

Первый заместитель куратора

Anton Nikolaev

Помощник куратора по мероприятиям
Инструкторы РПИ
Daniel Ryabkov * (Controller)
Grigori Badalov (Instructor)
Oleg Kabachenko * (Senior Student)
Valeriy Polostyanoy (Instructor)
Входит в состав
Кавказ

Диспетчеры РПИ

Диспетчер Рейтинг Допуски *
Alexei Gladilin Controller URRV_CTR
Anatoly Zhilkin Controller URRV_CTR
Artem Smychkov Instructor URRV_CTR
Daniel Ryabkov Controller URRV_CTR
Denis Zhuchkov Instructor URRV_CTR
Grigori Badalov Instructor URRV_CTR
Ivan Chernov Senior Controller URRV_CTR
Kirill Ivanov Controller URRV_CTR , SIP_APP
Valeriy Polostyanoy Instructor URRV_CTR
Alex Lupii Student 2 URSS_TWR, URSS_GND
Alexey Ginko Student 2 URSS_GND, URSS_TWR!!!*
Anton Fadeev Student URSS_GND
Dmitrii Khrupov Student 2 URMM_TWR, URSS_R_APP*, URWW_GND
Dmitry Sazonov Senior Student URSS_APP
Emanuel Teymoorian Senior Student URRP_APP , URSS_APP*
Gregory Adamov Student 2 URSS_TWR
Ivan Pivovarov Student 2 URSS_R_APP*
Maksim Kholodilov Student URFF_TWR!!!*
Maxim Baglikov Student 2 URSS_TWR!!!, URSS_R_APP*
Nikolay Kutorkin Student URSS_TWR!!!*, URSS_GND
Oleg Kabachenko Senior Student URSS_APP
Radomir Sigov Student URSS_GND
Sergey Vologzhin Unknown URSS_GND

Аэропорты РПИ

ICAO Город Название Погода
URFF Симферополь Симферополь
URSS Сочи Сочи URSS 240900Z 09002G07MPS 360V160 9999 NSC 27/02 Q1014 R02/010070 R06/////// NOSIG RMK R06/13004G08MPS QFE759
URRY
URKA Анапа Анапа URKA 240900Z 15010MPS CAVOK 24/09 Q1011 WS R22 R22/010070 TEMPO 13010G16MPS RMK QFE754/1005
URWA Астрахань Астрахань URWA 240900Z 05002MPS CAVOK 24/06 Q1018 R27/010070 NOSIG RMK QFE765/1021
URMO Владикавказ Беслан URMO 240900Z 01002MPS 300V060 9999 NSC 18/08 Q1019 R09/010070 NOSIG RMK QFE720/0960
URWW Волгоград Волгоград URWW 240900Z 08002MPS 040V130 CAVOK 18/05 Q1020 R05/010070 NOSIG
URKG Геленджик Геленджик
URMG Грозный Грозный URMG 240900Z 09003MPS CAVOK 20/09 Q1018 R08/090070 NOSIG RMK QFE749/0999
URKK Краснодар Пашковский URKK 240900Z 08002MPS CAVOK 20/11 Q1014 R05R/CLRD70 NOSIG RMK QFE757
URML Махачкала Уйташ URML 240900Z 06003MPS 030V100 9999 NSC 20/12 Q1018 R32/01//70 NOSIG RMK QFE763/1018
URMM Минеральные Воды Минеральные Воды URMM 240900Z 12006MPS 9999 NSC 19/07 Q1018 R11/090070 NOSIG RMK QFE735/0981
URMS Назрань Магас
URMN Нальчик Нальчик URMN 240900Z 11001MPS 9999 FEW/// 18/08 Q1017 R24/010070 NOSIG RMK QFE726
URRP Ростов-на-Дону Платов URRP 240900Z 10006MPS 9999 SCT///CB 14/08 Q1018 R05/CLRD70 TEMPO 2000 TSRA BKN004 BKN020CB RMK QFE758/1011
URRR Ростов-на-Дону Ростов-на-Дону
URMT Ставрополь Ставрополь URMT 240900Z 14007MPS 9999 SCT043 18/07 Q1018 R07/010070 NOSIG RMK QFE723
URWI Элиста Элиста URWI 240900Z 08002MPS 030V190 CAVOK 21/07 Q1019 R27/010065 NOSIG